Time;durP1;ratioP1;P1;durP2;ratioP2;P2;SDS_P1;SDS_P2;PMS_P1;PMS_P2;Temp;Humidity;BMP_temperature;BMP_pressure;BME280_temperature;BME280_humidity;BME280_pressure;Samples;Min_cycle;Max_cycle;Signal;HPM_P1;HPM_P2
2021/12/16 00:03:18;;;;;;;52.15;34.28;;;;;;;8.98;92.85;103252.97;5031724;28;20068;-74
2021/12/16 00:06:11;;;;;;;53.58;35.13;;;;;;;8.95;93.09;103247.00;5031916;28;20087;-74
2021/12/16 00:08:36;;;;;;;53.63;33.10;;;;;;;8.95;93.64;103252.41;5034038;28;20041;-74
2021/12/16 00:31:04;;;;;;;47.25;33.55;;;;;;;8.97;93.63;103245.03;5035795;28;20049;-74
2021/12/16 00:36:01;;;;;;;45.78;32.72;;;;;;;8.92;93.25;103244.63;5035986;28;20045;-74
2021/12/16 00:38:27;;;;;;;48.45;33.05;;;;;;;8.93;93.58;103249.88;5035632;28;20061;-74
2021/12/16 00:40:55;;;;;;;48.47;34.58;;;;;;;8.92;93.30;103253.56;5024488;28;20045;-74
2021/12/16 00:43:33;;;;;;;50.00;33.28;;;;;;;8.93;93.27;103249.03;4998202;28;20038;-74
2021/12/16 00:46:15;;;;;;;48.85;32.83;;;;;;;8.90;93.27;103247.47;5015919;28;20046;-74
2021/12/16 00:54:10;;;;;;;47.72;33.10;;;;;;;8.91;93.79;103251.88;5015810;28;20408;-74
2021/12/16 00:56:37;;;;;;;;;;;;;;;9.02;93.20;103253.50;5034979;28;20095;-74
2021/12/16 00:59:04;;;;;;;45.08;32.00;;;;;;;8.89;93.46;103248.47;5017833;28;20383;-74
2021/12/16 01:10:03;;;;;;;48.45;32.63;;;;;;;8.88;93.99;103254.91;5035270;28;20041;-74
2021/12/16 01:37:05;;;;;;;46.83;31.92;;;;;;;8.90;93.57;103265.53;5014896;28;20128;-74
2021/12/16 01:42:37;;;;;;;48.60;32.58;;;;;;;8.89;93.66;103272.78;5034880;28;20048;-74
2021/12/16 01:50:32;;;;;;;44.90;31.67;;;;;;;8.85;94.34;103276.81;4995142;28;20046;-74
2021/12/16 01:53:22;;;;;;;44.63;32.05;;;;;;;8.84;94.40;103284.03;4995630;28;20031;-74
2021/12/16 01:55:58;;;;;;;46.92;31.10;;;;;;;8.82;94.65;103286.06;4995076;28;20105;-74
2021/12/16 01:58:27;;;;;;;45.72;32.38;;;;;;;8.84;93.98;103285.91;4994539;28;20048;-74
2021/12/16 02:01:17;;;;;;;46.58;31.42;;;;;;;8.84;93.90;103288.59;4992852;28;20026;-74
2021/12/16 02:03:55;;;;;;;43.17;31.42;;;;;;;8.85;94.11;103283.03;4993340;28;20414;-74
2021/12/16 02:07:04;;;;;;;45.03;31.55;;;;;;;8.87;94.46;103288.28;4994680;28;20470;-74
2021/12/16 02:09:38;;;;;;;44.25;31.55;;;;;;;8.86;93.77;103290.16;4994321;28;20034;-74
2021/12/16 02:34:55;;;;;;;45.42;31.10;;;;;;;8.84;93.48;103300.25;4994499;28;20053;-74
2021/12/16 02:36:52;;;;;;;47.55;31.52;;;;;;;8.82;93.78;103301.41;4991035;28;20077;-74
2021/12/16 02:39:36;;;;;;;45.80;31.13;;;;;;;8.83;93.71;103303.09;4994435;28;20031;-74
2021/12/16 02:42:12;;;;;;;45.15;31.67;;;;;;;8.83;94.05;103303.09;4994396;28;20038;-74
2021/12/16 02:50:06;;;;;;;45.15;29.98;;;;;;;8.84;94.46;103311.03;5033279;28;20040;-74
2021/12/16 02:52:32;;;;;;;43.92;30.95;;;;;;;8.84;94.44;103307.50;5032552;28;20037;-74
2021/12/16 02:54:57;;;;;;;45.00;31.90;;;;;;;8.83;94.08;103314.75;5033134;28;20108;-74
2021/12/16 02:57:25;;;;;;;43.13;30.65;;;;;;;8.85;94.60;103311.91;5033349;28;20071;-74
2021/12/16 02:59:52;;;;;;;45.22;30.67;;;;;;;8.84;94.19;103311.03;5033362;28;20040;-74
2021/12/16 03:02:19;;;;;;;43.55;31.17;;;;;;;8.87;94.07;103315.28;5031029;28;20021;-74
2021/12/16 03:04:48;;;;;;;45.33;30.95;;;;;;;8.87;94.24;103309.91;5032936;28;20477;-74
2021/12/16 03:07:15;;;;;;;43.33;31.20;;;;;;;8.84;93.95;103299.41;5017106;28;20491;-74
2021/12/16 03:12:53;;;;;;;45.58;30.90;;;;;;;8.83;94.73;103303.09;5012984;28;20393;-73
2021/12/16 03:20:52;;;;;;;45.38;30.35;;;;;;;8.86;94.01;103313.59;4995896;28;20030;-74
2021/12/16 03:26:07;;;;;;;43.25;29.73;;;;;;;8.84;94.23;103302.09;5013133;28;20077;-73
2021/12/16 03:37:01;;;;;;;44.25;29.77;;;;;;;8.85;93.94;103310.03;5012822;28;20034;-74
2021/12/16 03:39:32;;;;;;;46.95;30.77;;;;;;;8.82;94.71;103304.94;4995217;28;20120;-73
2021/12/16 03:41:58;;;;;;;47.38;29.75;;;;;;;8.83;93.89;103308.50;5012130;28;20084;-73
2021/12/16 03:44:37;;;;;;;41.70;30.25;;;;;;;8.81;94.01;103311.34;5013085;28;20034;-73
2021/12/16 03:47:03;;;;;;;44.05;30.27;;;;;;;8.83;93.81;103319.28;5012418;28;20054;-73
2021/12/16 03:49:28;;;;;;;45.92;29.90;;;;;;;8.83;93.87;103319.28;5003595;28;20439;-73
2021/12/16 03:52:06;;;;;;;42.63;30.60;;;;;;;8.84;94.17;103321.84;5032325;28;20087;-73
2021/12/16 03:54:38;;;;;;;41.75;29.23;;;;;;;8.82;94.34;103323.00;5032325;28;20072;-73
2021/12/16 03:57:06;;;;;;;41.28;29.35;;;;;;;8.85;94.46;103330.81;5014805;28;20033;-73
2021/12/16 03:59:34;;;;;;;42.88;30.13;;;;;;;8.83;94.19;103336.38;5032240;28;20495;-73
2021/12/16 04:02:04;;;;;;;43.30;30.20;;;;;;;8.83;93.95;103338.19;5030107;28;20040;-73
2021/12/16 04:04:29;;;;;;;48.70;31.05;;;;;;;8.82;94.30;103331.94;5020695;28;20040;-73
2021/12/16 04:06:55;;;;;;;43.05;30.80;;;;;;;8.81;94.03;103332.09;5012623;28;20030;-73
2021/12/16 04:09:21;;;;;;;44.47;30.38;;;;;;;8.83;93.93;103332.78;5012657;28;20028;-73
2021/12/16 04:11:56;;;;;;;46.70;31.65;;;;;;;8.84;94.72;103331.81;5012447;28;20029;-73
2021/12/16 04:14:21;;;;;;;47.17;31.05;;;;;;;8.83;94.30;103330.97;5012679;28;20045;-73
2021/12/16 04:16:53;;;;;;;41.17;29.10;;;;;;;8.84;94.14;103332.63;4994914;28;20026;-73
2021/12/16 04:19:23;;;;;;;41.80;29.63;;;;;;;8.87;93.95;103348.53;5024126;28;20033;-73
2021/12/16 04:21:52;;;;;;;44.35;29.60;;;;;;;8.85;94.69;103331.66;5032388;28;20091;-73
2021/12/16 04:24:18;;;;;;;46.17;29.83;;;;;;;8.85;94.10;103333.50;5032293;28;20064;-73
2021/12/16 04:26:46;;;;;;;41.28;30.27;;;;;;;8.79;93.94;103332.25;5031886;28;20029;-73
2021/12/16 04:29:12;;;;;;;46.75;30.73;;;;;;;8.81;94.02;103337.50;5032195;28;20033;-73
2021/12/16 04:31:38;;;;;;;43.75;29.42;;;;;;;8.83;94.01;103338.19;5031975;28;20035;-73
2021/12/16 04:34:06;;;;;;;43.55;29.83;;;;;;;8.81;93.92;103337.50;5002276;28;20030;-73
2021/12/16 04:36:32;;;;;;;41.95;28.85;;;;;;;8.81;94.43;103326.72;4994588;28;20038;-73
2021/12/16 04:38:57;;;;;;;44.55;29.58;;;;;;;8.78;94.45;103327.00;5012493;28;20076;-73
2021/12/16 04:41:23;;;;;;;43.92;30.02;;;;;;;8.76;94.65;103329.03;5012128;28;20362;-73
2021/12/16 04:43:55;;;;;;;47.17;30.52;;;;;;;8.75;94.67;103324.63;5012131;28;20108;-73
2021/12/16 04:46:22;;;;;;;;;;;;;;;8.84;94.57;103327.25;5012617;28;20058;-73
2021/12/16 04:48:51;;;;;;;46.60;29.58;;;;;;;8.76;94.77;103326.31;5011888;28;20440;-73
2021/12/16 04:51:18;;;;;;;43.25;30.27;;;;;;;8.73;94.06;103327.47;5012252;28;20428;-73
2021/12/16 04:53:43;;;;;;;45.58;28.75;;;;;;;8.69;94.43;103324.22;4995318;28;20034;-73
2021/12/16 04:56:12;;;;;;;45.47;30.25;;;;;;;8.68;94.71;103329.75;5015895;28;20061;-73
2021/12/16 04:58:40;;;;;;;42.90;29.63;;;;;;;8.68;94.61;103333.31;5015484;28;20026;-73
2021/12/16 05:01:06;;;;;;;47.17;29.95;;;;;;;8.68;94.84;103327.06;5013583;28;20050;-73
2021/12/16 05:03:32;;;;;;;45.45;30.65;;;;;;;8.67;94.65;103331.63;5007398;28;20026;-73
2021/12/16 05:05:57;;;;;;;41.63;29.73;;;;;;;8.67;94.88;103328.91;5017914;28;20049;-74
2021/12/16 05:08:23;;;;;;;45.85;29.90;;;;;;;8.64;94.13;103328.38;5034229;28;20080;-73
2021/12/16 05:10:51;;;;;;;41.35;29.13;;;;;;;8.64;94.33;103331.91;5035221;28;20025;-73
2021/12/16 05:13:21;;;;;;;46.88;29.33;;;;;;;8.63;94.37;103327.50;5035514;28;20041;-73
2021/12/16 05:15:47;;;;;;;41.45;28.23;;;;;;;8.63;94.74;103330.22;5017295;28;20052;-73
2021/12/16 05:18:20;;;;;;;46.45;29.65;;;;;;;8.57;93.91;103325.41;5026388;28;20370;-73
2021/12/16 05:20:46;;;;;;;41.30;27.95;;;;;;;8.56;93.85;103334.53;4997654;28;20042;-73
2021/12/16 05:28:25;;;;;;;45.13;29.25;;;;;;;8.52;93.91;103336.66;5015328;28;20066;-73
2021/12/16 05:30:52;;;;;;;46.20;29.23;;;;;;;8.48;94.34;103332.59;5015015;28;20033;-73
2021/12/16 05:33:18;;;;;;;38.03;27.52;;;;;;;8.42;93.24;103343.09;5026143;28;20503;-73
2021/12/16 05:35:44;;;;;;;41.65;28.27;;;;;;;8.41;93.55;103346.78;5034734;28;20040;-72
2021/12/16 05:38:10;;;;;;;42.80;28.65;;;;;;;8.40;93.10;103353.19;5017115;28;20049;-73
2021/12/16 05:40:36;;;;;;;43.05;27.95;;;;;;;8.35;93.39;103348.25;5034671;28;20034;-73
2021/12/16 05:43:06;;;;;;;36.35;25.92;;;;;;;8.27;92.49;103351.69;5034837;28;20068;-73
2021/12/16 05:45:32;;;;;;;40.20;26.90;;;;;;;8.24;92.94;103351.94;5034288;28;20026;-73
2021/12/16 05:48:00;;;;;;;37.00;26.45;;;;;;;8.19;92.80;103358.81;5018594;28;20056;-73
2021/12/16 05:50:28;;;;;;;37.10;25.98;;;;;;;8.13;92.33;103360.25;5027635;28;20112;-73
2021/12/16 05:52:54;;;;;;;37.00;26.25;;;;;;;8.08;92.63;103362.53;5034423;28;20060;-73
2021/12/16 05:55:21;;;;;;;34.95;24.88;;;;;;;8.02;92.05;103371.19;5034657;28;20123;-73
2021/12/16 05:57:47;;;;;;;37.17;24.55;;;;;;;7.97;91.48;103369.81;5034463;28;20033;-73
2021/12/16 06:00:38;;;;;;;37.28;23.63;;;;;;;7.92;92.10;103374.75;5027163;28;20041;-73
2021/12/16 06:03:04;;;;;;;33.53;24.95;;;;;;;7.85;91.39;103373.66;4997137;28;20117;-73
2021/12/16 06:05:29;;;;;;;34.45;24.02;;;;;;;7.79;91.77;103376.94;5013520;28;20063;-73
2021/12/16 06:07:55;;;;;;;32.63;23.33;;;;;;;7.73;90.62;103390.97;5014371;28;20033;-73
2021/12/16 06:13:25;;;;;;;30.63;22.90;;;;;;;7.62;90.56;103389.28;4934389;29;20051;-73
2021/12/16 06:29:15;;;;;;;32.35;23.67;;;;;;;7.34;90.63;103389.16;5030330;28;20037;-73
2021/12/16 06:31:40;;;;;;;32.28;23.30;;;;;;;7.33;90.30;103397.38;5013667;28;20045;-73
2021/12/16 06:34:05;;;;;;;30.25;22.92;;;;;;;7.28;90.22;103403.19;5013829;28;20576;-73
2021/12/16 06:36:31;;;;;;;31.98;23.15;;;;;;;7.26;90.22;103400.63;5014307;28;20057;-73
2021/12/16 06:38:56;;;;;;;32.67;23.20;;;;;;;7.22;90.94;103401.06;5013773;28;20386;-73
2021/12/16 06:41:22;;;;;;;29.85;22.55;;;;;;;7.18;90.43;103403.16;4996346;28;20029;-73
2021/12/16 06:43:50;;;;;;;28.98;21.25;;;;;;;7.15;89.88;103400.75;5015306;28;20393;-73
2021/12/16 06:46:19;;;;;;;28.77;22.45;;;;;;;7.10;89.71;103400.31;5033571;28;20136;-73
2021/12/16 06:48:48;;;;;;;35.63;23.75;;;;;;;7.08;90.38;103408.53;5033494;28;20638;-73
2021/12/16 06:51:22;;;;;;;29.90;22.70;;;;;;;7.07;90.41;103401.44;5033555;28;20030;-73
2021/12/16 06:54:03;;;;;;;34.33;23.60;;;;;;;7.05;90.30;103402.56;5033265;28;20037;-73
2021/12/16 06:57:19;;;;;;;35.08;24.27;;;;;;;7.03;90.24;103415.31;5033502;28;20037;-73
2021/12/16 06:59:40;;;;;;;29.88;22.05;;;;;;;6.98;89.74;103401.44;5016526;28;20041;-73
2021/12/16 07:02:12;;;;;;;32.78;22.80;;;;;;;6.95;89.47;103407.94;5011336;28;20426;-73
2021/12/16 07:04:39;;;;;;;34.13;22.80;;;;;;;6.88;89.55;103418.41;5013582;28;20061;-73
2021/12/16 07:07:07;;;;;;;33.83;22.75;;;;;;;6.85;89.92;103409.75;4995632;28;20488;-73
2021/12/16 07:09:34;;;;;;;32.30;23.45;;;;;;;6.85;90.52;103405.19;4995825;28;20092;-73
2021/12/16 07:12:00;;;;;;;35.33;24.05;;;;;;;6.82;89.79;103420.78;5013231;28;20040;-73
2021/12/16 07:14:38;;;;;;;31.45;23.50;;;;;;;6.80;89.85;103434.38;5024798;28;20148;-73
2021/12/16 07:17:10;;;;;;;35.47;24.17;;;;;;;6.77;89.97;103433.81;5015183;28;20030;-73
2021/12/16 07:19:36;;;;;;;;;;;;;;;6.94;90.93;103433.16;5033562;28;20079;-73
2021/12/16 07:22:03;;;;;;;31.00;22.88;;;;;;;6.77;89.82;103450.81;5015088;28;19918;-73
2021/12/16 07:24:29;;;;;;;34.05;23.30;;;;;;;6.70;89.24;103453.19;5032988;28;20076;-73
2021/12/16 07:26:55;;;;;;;32.95;23.17;;;;;;;6.65;89.63;103438.44;5014865;28;20418;-73
2021/12/16 07:29:20;;;;;;;33.45;22.77;;;;;;;6.69;89.49;103447.94;5002069;28;20128;-73
2021/12/16 07:31:45;;;;;;;34.15;24.80;;;;;;;6.70;89.46;103457.72;5012874;28;20457;-73
2021/12/16 07:34:12;;;;;;;32.20;23.67;;;;;;;6.66;89.20;103464.38;4995505;28;20429;-73
2021/12/16 07:36:40;;;;;;;37.90;24.48;;;;;;;6.62;89.80;103471.00;5013082;28;20034;-73
2021/12/16 07:39:09;;;;;;;32.67;23.98;;;;;;;6.62;89.59;103469.16;5012892;28;20033;-73
2021/12/16 07:41:35;;;;;;;35.00;24.20;;;;;;;6.56;89.67;103486.66;4995429;28;20100;-73
2021/12/16 07:44:12;;;;;;;34.15;23.42;;;;;;;6.55;90.42;103476.91;5025121;28;20029;-73
2021/12/16 07:46:44;;;;;;;40.45;27.35;;;;;;;6.65;91.18;103481.50;5032634;28;20144;-73
2021/12/16 07:49:13;;;;;;;37.42;26.50;;;;;;;6.62;91.23;103476.38;5032375;28;20029;-73
2021/12/16 07:51:39;;;;;;;35.42;25.55;;;;;;;6.61;90.29;103482.75;5032267;28;20406;-73
2021/12/16 07:54:06;;;;;;;32.33;24.52;;;;;;;6.61;89.83;103493.50;5032058;28;20072;-73
2021/12/16 07:56:32;;;;;;;36.80;26.23;;;;;;;6.57;90.23;103501.84;5032355;28;20499;-73
2021/12/16 07:58:58;;;;;;;36.97;24.75;;;;;;;6.59;89.97;103503.56;5017932;28;20041;-77
2021/12/16 08:01:24;;;;;;;37.50;25.88;;;;;;;6.60;90.02;103513.31;5010505;28;20409;-77
2021/12/16 08:03:50;;;;;;;36.75;25.38;;;;;;;6.59;90.15;103514.31;4994875;28;20437;-77
2021/12/16 08:06:22;;;;;;;40.13;25.02;;;;;;;6.52;89.96;103517.53;5012676;28;20113;-76
2021/12/16 08:08:55;;;;;;;35.70;24.83;;;;;;;6.55;89.86;103519.09;4994924;28;20062;-75
2021/12/16 08:11:21;;;;;;;32.80;23.33;;;;;;;6.50;89.68;103527.56;4994997;28;20088;-75
2021/12/16 08:13:46;;;;;;;35.00;23.52;;;;;;;6.49;89.50;103533.94;5026776;28;20037;-75
2021/12/16 08:16:12;;;;;;;36.75;24.67;;;;;;;6.48;90.17;103532.22;5032338;28;20075;-75
2021/12/16 08:18:37;;;;;;;35.80;25.77;;;;;;;6.47;88.97;103529.66;5032358;28;20032;-75
2021/12/16 08:21:04;;;;;;;38.67;25.35;;;;;;;6.52;90.12;103536.38;5014292;28;20433;-75
2021/12/16 08:23:30;;;;;;;45.78;24.25;;;;;;;6.47;89.34;103535.88;5032256;28;20091;-73
2021/12/16 08:25:55;;;;;;;39.90;24.55;;;;;;;6.47;89.28;103548.50;5014240;28;20054;-73
2021/12/16 08:28:22;;;;;;;50.13;26.80;;;;;;;6.47;89.56;103549.34;5018792;28;20045;-73
2021/12/16 08:30:50;;;;;;;52.30;28.92;;;;;;;6.40;90.84;103542.78;5015948;28;20032;-73
2021/12/16 08:33:16;;;;;;;67.32;30.05;;;;;;;6.41;90.11;103555.25;5016497;28;20033;-73
2021/12/16 08:35:45;;;;;;;62.38;30.13;;;;;;;6.43;90.08;103553.31;5016619;28;20101;-73
2021/12/16 08:38:14;;;;;;;57.40;30.30;;;;;;;6.45;91.07;103556.69;5016593;28;20156;-73
2021/12/16 08:40:42;;;;;;;61.22;30.63;;;;;;;6.45;90.19;103554.00;4998648;28;20026;-73
2021/12/16 08:43:09;;;;;;;80.88;31.52;;;;;;;6.47;90.56;103549.34;5029631;28;20034;-73
2021/12/16 08:45:36;;;;;;;67.28;31.73;;;;;;;6.46;90.45;103558.41;5035276;28;20034;-72
2021/12/16 08:48:03;;;;;;;55.20;31.85;;;;;;;6.51;90.86;103563.41;5035527;28;20025;-73
2021/12/16 08:50:32;;;;;;;61.00;31.33;;;;;;;6.51;91.00;103556.19;5035682;28;20036;-73
2021/12/16 08:53:00;;;;;;;56.05;30.80;;;;;;;6.54;90.11;103560.44;5035566;28;20029;-73
2021/12/16 08:55:27;;;;;;;72.57;32.30;;;;;;;6.53;90.96;103573.03;5017912;28;20377;-73
2021/12/16 08:57:53;;;;;;;50.13;30.98;;;;;;;6.55;91.03;103564.81;5023370;28;20038;-73
2021/12/16 09:00:23;;;;;;;52.40;29.73;;;;;;;6.55;91.10;103572.91;5015874;28;20473;-73
2021/12/16 09:02:49;;;;;;;60.05;30.67;;;;;;;6.56;91.57;103586.22;5013953;28;20034;-72
2021/12/16 09:05:14;;;;;;;48.65;29.83;;;;;;;6.61;91.26;103579.59;4997929;28;20144;-74
2021/12/16 09:07:40;;;;;;;48.83;30.77;;;;;;;6.61;91.72;103591.19;5015830;28;20083;-73
2021/12/16 09:10:07;;;;;;;47.63;29.35;;;;;;;6.69;91.60;103591.41;5015471;28;20423;-73
2021/12/16 09:15:08;;;;;;;47.15;30.13;;;;;;;6.78;91.24;103591.59;5035102;28;20041;-74
2021/12/16 09:17:33;;;;;;;42.40;28.33;;;;;;;6.78;91.33;103588.91;5035270;28;20045;-74
2021/12/16 09:19:58;;;;;;;43.75;28.90;;;;;;;6.83;91.31;103587.53;5035388;28;20025;-73
2021/12/16 09:22:26;;;;;;;45.03;26.77;;;;;;;6.87;90.82;103594.34;5035347;28;20381;-74
2021/12/16 09:24:53;;;;;;;41.90;26.88;;;;;;;6.91;91.47;103603.00;5034803;28;20115;-73
2021/12/16 09:27:19;;;;;;;41.45;27.25;;;;;;;6.97;91.54;103598.94;5025146;28;20042;-74
2021/12/16 09:29:46;;;;;;;41.20;28.58;;;;;;;7.06;91.70;103587.38;5015085;28;20064;-75
2021/12/16 09:32:11;;;;;;;40.40;26.35;;;;;;;7.09;92.78;103579.00;5015138;28;20109;-76
2021/12/16 09:34:39;;;;;;;38.58;25.67;;;;;;;7.16;91.22;103604.44;5015034;28;20505;-76
2021/12/16 09:37:05;;;;;;;37.88;26.08;;;;;;;7.24;91.58;103598.38;5014979;28;20026;-74
2021/12/16 09:39:31;;;;;;;34.55;25.95;;;;;;;7.32;91.57;103598.53;5014518;28;20030;-73
2021/12/16 09:41:57;;;;;;;38.72;25.88;;;;;;;7.33;91.02;103602.09;5022774;28;20037;-73
2021/12/16 09:44:24;;;;;;;37.75;26.35;;;;;;;7.39;91.60;103612.31;5034805;28;20547;-72
2021/12/16 09:46:52;;;;;;;39.13;27.77;;;;;;;7.46;92.34;103605.41;5034581;28;20535;-74
2021/12/16 09:49:19;;;;;;;44.90;29.38;;;;;;;7.57;93.46;103602.59;5034461;28;20044;-76
2021/12/16 09:51:46;;;;;;;43.70;28.67;;;;;;;7.64;92.75;103602.91;5034680;28;20041;-74
2021/12/16 09:54:14;;;;;;;38.10;27.02;;;;;;;7.67;92.16;103601.75;5034438;28;20029;-74
2021/12/16 09:56:43;;;;;;;39.70;28.30;;;;;;;7.75;92.85;103599.25;5016299;28;20045;-75
2021/12/16 09:59:13;;;;;;;44.60;31.15;;;;;;;7.85;94.12;103604.66;5034344;28;20025;-75
2021/12/16 10:01:39;;;;;;;47.78;32.35;;;;;;;7.90;93.78;103592.47;5014594;28;20040;-75
2021/12/16 10:04:08;;;;;;;45.42;32.58;;;;;;;7.98;94.64;103598.00;5033993;28;20026;-76
2021/12/16 10:06:36;;;;;;;45.47;32.80;;;;;;;8.02;93.80;103606.66;5034531;28;20029;-75
2021/12/16 10:09:05;;;;;;;39.58;28.85;;;;;;;8.09;93.07;103606.94;5033941;28;20477;-75
2021/12/16 10:11:33;;;;;;;47.05;34.00;;;;;;;8.14;94.14;103589.34;5022672;28;20045;-75
2021/12/16 10:14:04;;;;;;;49.38;34.72;;;;;;;8.24;94.14;103602.00;5014417;28;20469;-76
2021/12/16 10:19:18;;;;;;;53.15;35.78;;;;;;;8.42;94.40;103604.81;5028008;28;20035;-75
2021/12/16 10:21:45;;;;;;;51.83;36.45;;;;;;;8.49;94.18;103597.91;5027704;28;20465;-74
2021/12/16 10:24:39;;;;;;;52.72;37.40;;;;;;;8.60;94.59;103607.69;5027755;28;20093;-73
2021/12/16 10:27:12;;;;;;;51.70;37.22;;;;;;;8.66;94.06;103607.94;5015966;28;20045;-74
2021/12/16 10:29:49;;;;;;;51.53;35.08;;;;;;;8.69;94.19;103615.75;5033467;28;20039;-73
2021/12/16 10:32:35;;;;;;;49.55;35.33;;;;;;;8.79;94.61;103607.66;5020172;28;20037;-73
2021/12/16 10:35:07;;;;;;;47.70;34.63;;;;;;;8.88;94.07;103597.84;5014090;28;20043;-73
2021/12/16 10:37:36;;;;;;;47.22;32.63;;;;;;;8.91;94.19;103602.06;5033744;28;20134;-73
2021/12/16 10:40:23;;;;;;;46.53;33.83;;;;;;;9.01;94.62;103603.78;5015419;28;20029;-74
2021/12/16 10:42:50;;;;;;;48.08;34.63;;;;;;;9.07;94.02;103593.38;5033433;28;20030;-73
2021/12/16 10:45:31;;;;;;;51.88;32.97;;;;;;;9.13;93.93;103593.63;5032822;28;20039;-73
2021/12/16 10:48:22;;;;;;;46.35;30.80;;;;;;;9.16;93.39;103592.47;5028935;28;20029;-72
2021/12/16 10:50:57;;;;;;;44.33;32.25;;;;;;;9.19;94.05;103592.19;5027955;28;20036;-74
2021/12/16 10:53:46;;;;;;;46.67;31.15;;;;;;;9.33;94.00;103602.50;5032812;28;20032;-76
2021/12/16 10:56:13;;;;;;;44.30;30.13;;;;;;;9.38;92.75;103600.19;5031964;28;20037;-73
2021/12/16 10:58:54;;;;;;;43.78;28.75;;;;;;;9.46;93.19;103595.91;5032702;28;20556;-75
2021/12/16 11:01:51;;;;;;;42.80;28.38;;;;;;;9.50;92.64;103595.47;5030106;28;20026;-76
2021/12/16 11:04:34;;;;;;;35.38;25.75;;;;;;;9.53;92.27;103602.41;5003395;28;20049;-73
2021/12/16 11:07:02;;;;;;;35.50;25.10;;;;;;;9.61;92.52;103607.91;5013041;28;20439;-75
2021/12/16 11:09:42;;;;;;;37.35;25.20;;;;;;;9.67;92.26;103612.72;5016424;28;20465;-73
2021/12/16 11:12:28;;;;;;;36.30;23.85;;;;;;;9.74;92.05;103615.69;5016352;28;20094;-73
2021/12/16 11:15:01;;;;;;;38.92;26.92;;;;;;;9.76;91.50;103614.50;4996125;28;20030;-73
2021/12/16 11:17:33;;;;;;;37.80;25.75;;;;;;;9.82;91.60;103613.06;5012889;28;20470;-77
2021/12/16 11:20:16;;;;;;;35.53;23.58;;;;;;;9.87;91.16;103615.31;5018403;28;20152;-75
2021/12/16 11:22:42;;;;;;;31.75;22.35;;;;;;;9.91;90.93;103617.56;5030084;28;20034;-74
2021/12/16 11:25:17;;;;;;;38.72;22.55;;;;;;;9.91;90.96;103611.28;5013262;28;20041;-75
2021/12/16 11:27:49;;;;;;;32.92;22.05;;;;;;;9.89;90.24;103619.56;5021195;28;20029;-75
2021/12/16 11:30:19;;;;;;;34.83;20.80;;;;;;;9.89;90.37;103614.16;5030268;28;20060;-74
2021/12/16 11:32:49;;;;;;;34.30;21.77;;;;;;;9.94;90.58;103619.09;5012832;28;20037;-74
2021/12/16 11:35:26;;;;;;;31.65;20.77;;;;;;;9.95;91.10;103623.53;5022877;28;20101;-75
2021/12/16 11:37:52;;;;;;;28.17;20.00;;;;;;;9.91;90.98;103614.84;5027048;28;20041;-76
2021/12/16 11:40:19;;;;;;;27.98;19.58;;;;;;;9.94;90.30;103611.00;5032351;28;20025;-77
2021/12/16 11:42:58;;;;;;;25.40;17.40;;;;;;;9.93;90.51;103609.28;5032834;28;20040;-77
2021/12/16 11:45:39;;;;;;;27.70;19.38;;;;;;;9.94;89.84;103616.41;5030590;28;20030;-75
2021/12/16 11:48:06;;;;;;;31.20;19.02;;;;;;;9.89;90.18;103606.03;5011581;28;20037;-75
2021/12/16 11:50:37;;;;;;;29.85;17.70;;;;;;;9.99;91.16;103602.41;5032919;28;20044;-78
2021/12/16 11:53:03;;;;;;;31.65;21.23;;;;;;;10.02;91.34;103608.34;5026461;28;20033;-75
2021/12/16 11:55:29;;;;;;;34.15;20.48;;;;;;;10.13;91.02;103604.59;5013286;28;20033;-79
2021/12/16 11:58:01;;;;;;;29.25;20.13;;;;;;;10.21;89.59;103604.66;5000776;28;20388;-76
2021/12/16 12:00:44;;;;;;;28.67;19.67;;;;;;;10.24;90.17;103606.22;5013702;28;20061;-77
2021/12/16 12:03:14;;;;;;;26.23;17.15;;;;;;;10.24;88.31;103601.66;5031390;28;20034;-79
2021/12/16 12:05:42;;;;;;;27.55;16.83;;;;;;;10.26;89.00;103601.50;5032491;28;20109;-77
2021/12/16 12:08:22;;;;;;;24.60;16.00;;;;;;;10.24;89.12;103600.81;5030826;28;20037;-79
2021/12/16 12:10:48;;;;;;;27.38;16.80;;;;;;;10.29;88.47;103598.47;5026093;28;20021;-76
2021/12/16 12:13:18;;;;;;;25.58;14.48;;;;;;;10.27;87.80;103600.50;5005675;28;20461;-76
2021/12/16 12:16:10;;;;;;;26.20;15.90;;;;;;;10.33;88.67;103605.31;5032184;28;20528;-76
2021/12/16 12:18:49;;;;;;;25.60;16.45;;;;;;;10.33;88.34;103594.50;5010303;28;20037;-77
2021/12/16 12:21:17;;;;;;;28.05;17.10;;;;;;;10.35;88.09;103597.88;5030504;28;20477;-78
2021/12/16 12:23:51;;;;;;;28.85;17.70;;;;;;;10.34;88.73;103606.16;5022449;28;20040;-77
2021/12/16 12:26:22;;;;;;;24.58;15.88;;;;;;;10.34;88.04;103603.44;5005786;28;20167;-77
2021/12/16 12:28:56;;;;;;;26.98;16.75;;;;;;;10.34;87.98;103593.50;5013608;28;20041;-75
2021/12/16 12:31:24;;;;;;;28.65;16.67;;;;;;;10.32;87.93;103598.16;5014298;28;20021;-76
2021/12/16 12:33:51;;;;;;;27.63;16.33;;;;;;;10.34;87.51;103598.91;5014348;28;20045;-77
2021/12/16 12:36:19;;;;;;;28.77;16.60;;;;;;;10.32;87.98;103594.59;5012260;28;20026;-77
2021/12/16 12:38:45;;;;;;;24.55;16.20;;;;;;;10.33;87.54;103591.78;5012207;28;20044;-77
2021/12/16 12:41:11;;;;;;;25.67;15.45;;;;;;;10.31;86.68;103585.66;5013040;28;20032;-76
2021/12/16 12:43:37;;;;;;;24.38;16.50;;;;;;;10.25;87.08;103586.25;5009382;28;20470;-77
2021/12/16 12:46:05;;;;;;;26.80;16.70;;;;;;;10.26;87.09;103594.22;5011852;28;20050;-77
2021/12/16 12:48:35;;;;;;;27.20;16.65;;;;;;;10.26;87.60;103598.78;5027425;28;20034;-77
2021/12/16 12:51:04;;;;;;;26.63;17.27;;;;;;;10.27;87.97;103600.50;5014057;28;20091;-77
2021/12/16 12:53:34;;;;;;;26.35;17.70;;;;;;;10.30;87.80;103594.75;4995041;28;20045;-77
2021/12/16 12:56:10;;;;;;;29.15;18.65;;;;;;;10.35;87.71;103589.75;5012390;28;20034;-77
2021/12/16 12:58:48;;;;;;;29.17;18.73;;;;;;;10.38;87.69;103594.84;5007782;28;20040;-76
2021/12/16 13:01:13;;;;;;;27.02;17.88;;;;;;;10.40;87.50;103590.16;5022983;28;20030;-77
2021/12/16 13:03:40;;;;;;;26.98;18.30;;;;;;;10.41;87.37;103586.41;5031095;28;20029;-77
2021/12/16 13:06:10;;;;;;;27.98;17.33;;;;;;;10.40;86.54;103583.88;5005237;28;20036;-78
2021/12/16 13:08:39;;;;;;;28.00;16.00;;;;;;;10.41;86.56;103583.72;5027504;28;20040;-79
2021/12/16 13:11:14;;;;;;;24.02;15.82;;;;;;;10.42;86.06;103579.16;5037937;28;20124;-74
2021/12/16 13:14:15;;;;;;;27.13;16.67;;;;;;;10.45;86.97;103585.09;5051487;28;20060;-74
2021/12/16 13:26:00;;;;;;;25.50;14.95;;;;;;;10.54;85.57;103585.19;5035048;28;20040;-75
2021/12/16 13:28:21;;;;;;;22.75;14.98;;;;;;;10.57;85.52;103579.47;5021284;28;20037;-75
2021/12/16 13:31:02;;;;;;;26.08;15.80;;;;;;;10.57;85.12;103579.47;4999621;28;20060;-75
2021/12/16 13:33:52;;;;;;;23.15;15.02;;;;;;;10.54;85.47;103579.78;5034340;28;20043;-76
2021/12/16 13:36:28;;;;;;;25.67;14.77;;;;;;;10.57;85.13;103579.47;5013594;28;20045;-76
2021/12/16 13:38:54;;;;;;;21.58;14.35;;;;;;;10.61;84.36;103587.09;5031529;28;20032;-75
2021/12/16 13:41:24;;;;;;;22.13;14.25;;;;;;;10.61;84.50;103592.53;4997218;28;20033;-76
2021/12/16 13:43:55;;;;;;;21.13;12.68;;;;;;;10.62;83.07;103590.66;5015027;28;20096;-75
2021/12/16 13:46:39;;;;;;;26.33;14.30;;;;;;;10.63;84.18;103590.50;5022774;28;20061;-76
2021/12/16 14:03:02;;;;;;;;;;;;;;;10.70;85.20;103589.84;5013676;28;20038;-75
2021/12/16 14:05:56;;;;;;;20.85;13.13;;;;;;;10.71;83.15;103602.41;5008811;28;20323;-75
2021/12/16 14:08:39;;;;;;;23.15;13.02;;;;;;;10.69;83.92;103597.16;5014353;28;20029;-75
2021/12/16 14:14:25;;;;;;;27.45;15.20;;;;;;;10.69;82.82;103604.41;5018428;28;20045;-75
2021/12/16 14:31:23;;;;;;;19.75;9.75;;;;;;;10.65;81.08;103601.16;5032322;28;20125;-76
2021/12/16 14:39:59;;;;;;;16.23;9.27;;;;;;;10.60;81.27;103615.19;5033263;28;20160;-77
2021/12/16 14:42:49;;;;;;;16.13;9.77;;;;;;;10.57;81.44;103618.22;5015430;28;20052;-75
2021/12/16 14:50:46;;;;;;;20.30;10.05;;;;;;;10.43;83.34;103626.88;5017908;28;20041;-73